createdAt,value
2019-05-23T00:01:52.337Z,0.00
2019-05-23T00:02:52.309Z,0.00
2019-05-23T00:03:52.315Z,0.00
2019-05-23T00:04:52.277Z,0.00
2019-05-23T00:05:52.248Z,0.00
2019-05-23T00:06:52.227Z,0.00
2019-05-23T00:07:52.215Z,0.00
2019-05-23T00:08:52.189Z,0.00
2019-05-23T00:09:52.167Z,0.00
2019-05-23T00:10:52.148Z,0.00
2019-05-23T00:11:52.129Z,0.00
2019-05-23T00:12:52.104Z,0.00
2019-05-23T00:13:52.089Z,0.00
2019-05-23T00:14:52.066Z,0.00
2019-05-23T00:15:52.043Z,0.00
2019-05-23T00:17:25.232Z,0.00
2019-05-23T00:17:52.006Z,0.00
2019-05-23T00:18:51.982Z,0.00
2019-05-23T00:19:51.961Z,0.00
2019-05-23T00:20:51.955Z,0.00
2019-05-23T00:21:51.925Z,0.00
2019-05-23T00:22:51.900Z,0.00
2019-05-23T00:23:51.879Z,0.00
2019-05-23T00:24:51.871Z,0.00
2019-05-23T00:25:51.842Z,0.00
2019-05-23T00:26:51.821Z,0.00
2019-05-23T00:27:51.796Z,0.00
2019-05-23T00:29:07.543Z,0.00
2019-05-23T00:29:51.757Z,0.00
2019-05-23T00:30:51.740Z,0.00
2019-05-23T00:31:51.715Z,0.00
2019-05-23T00:32:51.695Z,0.00
2019-05-23T00:33:51.681Z,0.00
2019-05-23T00:34:51.662Z,0.00
2019-05-23T00:35:51.637Z,0.00
2019-05-23T00:36:51.761Z,0.00
2019-05-23T00:37:51.591Z,0.00
2019-05-23T00:38:51.574Z,0.00
2019-05-23T00:39:51.560Z,0.00
2019-05-23T00:40:51.529Z,0.00
2019-05-23T00:41:51.523Z,0.00
2019-05-23T00:42:51.504Z,0.00
2019-05-23T00:43:51.469Z,0.00
2019-05-23T00:44:51.447Z,0.00
2019-05-23T00:45:51.427Z,0.00
2019-05-23T00:46:51.409Z,0.00
2019-05-23T00:47:51.390Z,0.00
2019-05-23T00:48:51.372Z,0.00
2019-05-23T00:49:51.352Z,0.00
2019-05-23T00:50:51.323Z,0.00
2019-05-23T00:51:51.301Z,0.00
2019-05-23T00:52:51.282Z,0.00
2019-05-23T00:53:51.263Z,0.00
2019-05-23T00:54:51.245Z,0.00
2019-05-23T00:55:51.222Z,0.00
2019-05-23T00:56:51.197Z,0.00
2019-05-23T00:57:51.178Z,0.00
2019-05-23T00:58:51.163Z,0.00
2019-05-23T00:59:51.135Z,0.00
2019-05-23T01:00:51.439Z,0.00
2019-05-23T01:01:51.097Z,0.00
2019-05-23T01:02:51.075Z,0.00
2019-05-23T01:03:51.052Z,0.00
2019-05-23T01:04:51.033Z,0.00
2019-05-23T01:05:51.012Z,0.00
2019-05-23T01:06:50.996Z,0.00
2019-05-23T01:07:50.979Z,0.00
2019-05-23T01:08:50.950Z,0.00
2019-05-23T01:09:50.938Z,0.00
2019-05-23T01:10:50.910Z,0.00
2019-05-23T01:11:50.887Z,0.00
2019-05-23T01:12:50.920Z,0.00
2019-05-23T01:13:50.849Z,0.00
2019-05-23T01:14:50.855Z,0.00
2019-05-23T01:15:50.806Z,0.00
2019-05-23T01:16:50.788Z,0.00
2019-05-23T01:17:50.762Z,0.00
2019-05-23T01:18:50.796Z,0.00
2019-05-23T01:19:50.726Z,0.00
2019-05-23T01:20:50.700Z,0.00
2019-05-23T01:21:50.693Z,0.00
2019-05-23T01:22:50.663Z,0.00
2019-05-23T01:23:50.649Z,0.00
2019-05-23T01:24:50.615Z,0.00
2019-05-23T01:25:50.606Z,0.00
2019-05-23T01:26:50.578Z,0.00
2019-05-23T01:27:50.558Z,0.00
2019-05-23T01:28:50.532Z,0.00
2019-05-23T01:29:50.633Z,0.00
2019-05-23T01:30:50.493Z,0.00
2019-05-23T01:31:50.473Z,0.00
2019-05-23T01:32:50.448Z,0.00
2019-05-23T01:33:50.427Z,0.00
2019-05-23T01:34:50.409Z,0.00
2019-05-23T01:35:50.388Z,0.00
2019-05-23T01:36:50.367Z,0.00
2019-05-23T01:37:50.344Z,0.00
2019-05-23T01:38:50.323Z,0.00
2019-05-23T01:39:50.304Z,0.00
2019-05-23T01:40:50.281Z,0.00
2019-05-23T01:41:50.262Z,0.00
2019-05-23T01:42:50.252Z,0.00
2019-05-23T01:43:50.217Z,0.00
2019-05-23T01:44:50.206Z,0.00
2019-05-23T01:45:50.175Z,0.00
2019-05-23T01:46:50.156Z,0.00
2019-05-23T01:47:50.153Z,0.00
2019-05-23T01:48:50.118Z,0.00
2019-05-23T01:49:50.092Z,0.00
2019-05-23T01:50:50.070Z,0.00
2019-05-23T01:51:50.049Z,0.00
2019-05-23T01:52:50.029Z,0.00
2019-05-23T01:53:50.015Z,0.00
2019-05-23T01:54:50.003Z,0.00
2019-05-23T01:55:49.963Z,0.00
2019-05-23T01:56:49.956Z,0.00
2019-05-23T01:57:49.924Z,0.00
2019-05-23T01:58:49.901Z,0.00
2019-05-23T02:00:07.822Z,0.00
2019-05-23T02:00:49.870Z,0.00
2019-05-23T02:01:49.844Z,0.00
2019-05-23T02:02:49.817Z,0.00
2019-05-23T02:03:49.796Z,0.00
2019-05-23T02:04:49.829Z,0.00
2019-05-23T02:05:49.753Z,0.00
2019-05-23T02:06:49.751Z,0.00
2019-05-23T02:07:49.708Z,0.00
2019-05-23T02:08:49.693Z,0.00
2019-05-23T02:09:49.671Z,0.00
2019-05-23T02:10:49.647Z,0.00
2019-05-23T02:11:49.639Z,0.00
2019-05-23T02:12:49.603Z,0.00
2019-05-23T02:13:50.189Z,0.00
2019-05-23T02:14:49.564Z,0.00
2019-05-23T02:23:05.337Z,0.00
2019-05-23T02:24:05.308Z,0.00
2019-05-23T02:25:05.486Z,0.00
2019-05-23T02:26:05.679Z,0.00
2019-05-23T02:27:06.655Z,0.00
2019-05-23T02:29:04.459Z,0.00
2019-05-23T02:32:42.561Z,0.00
2019-05-23T02:33:42.532Z,0.00
2019-05-23T02:34:42.503Z,0.00
2019-05-23T02:35:42.481Z,0.00
2019-05-23T02:36:42.518Z,0.00
2019-05-23T02:37:42.436Z,0.00
2019-05-23T02:38:42.415Z,0.00
2019-05-23T02:39:42.394Z,0.00
2019-05-23T02:40:42.371Z,0.00
2019-05-23T02:41:42.349Z,0.00
2019-05-23T02:42:42.334Z,0.00
2019-05-23T02:43:42.305Z,0.00
2019-05-23T02:44:42.289Z,0.00
2019-05-23T02:45:42.270Z,0.00
2019-05-23T02:46:42.239Z,0.00
2019-05-23T02:47:42.232Z,0.00
2019-05-23T02:48:42.204Z,0.00
2019-05-23T02:49:42.173Z,0.00
2019-05-23T02:50:42.152Z,0.00
2019-05-23T02:51:42.130Z,0.00
2019-05-23T02:52:42.109Z,0.00
2019-05-23T02:53:42.095Z,0.00
2019-05-23T02:54:42.065Z,0.00
2019-05-23T02:55:42.048Z,0.00
2019-05-23T02:56:42.037Z,0.00
2019-05-23T02:57:41.997Z,0.00
2019-05-23T02:58:41.977Z,0.00
2019-05-23T02:59:41.976Z,0.00
2019-05-23T03:00:53.473Z,0.00
2019-05-23T03:01:41.914Z,0.00
2019-05-23T03:02:41.888Z,0.00
2019-05-23T03:03:41.869Z,0.00
2019-05-23T03:04:41.850Z,0.00
2019-05-23T03:05:41.829Z,0.00
2019-05-23T03:06:41.803Z,0.00
2019-05-23T03:07:41.785Z,0.00
2019-05-23T03:08:41.776Z,0.00
2019-05-23T03:09:41.737Z,0.00
2019-05-23T03:10:41.717Z,0.00
2019-05-23T03:11:41.693Z,0.00
2019-05-23T03:12:41.671Z,0.00
2019-05-23T03:13:41.775Z,0.00
2019-05-23T03:14:41.628Z,0.00
2019-05-23T03:15:41.604Z,0.00
2019-05-23T03:16:41.587Z,0.00
2019-05-23T03:17:41.564Z,5.63
2019-05-23T03:18:41.540Z,5.63
2019-05-23T03:19:41.526Z,5.63
2019-05-23T03:20:41.497Z,5.63
2019-05-23T03:21:41.483Z,5.63
2019-05-23T03:22:41.452Z,5.63
2019-05-23T03:23:41.432Z,5.63
2019-05-23T03:24:41.411Z,5.63
2019-05-23T03:25:41.409Z,5.63
2019-05-23T03:26:41.369Z,11.25
2019-05-23T03:27:41.346Z,11.25
2019-05-23T03:28:41.322Z,11.25
2019-05-23T03:29:41.299Z,11.25
2019-05-23T03:30:41.282Z,11.25
2019-05-23T03:31:41.257Z,11.25
2019-05-23T03:32:41.243Z,16.88
2019-05-23T03:33:41.218Z,16.88
2019-05-23T03:34:41.191Z,16.88
2019-05-23T03:35:41.175Z,16.88
2019-05-23T03:36:41.156Z,22.50
2019-05-23T03:37:41.130Z,22.50
2019-05-23T03:38:41.108Z,22.50
2019-05-23T03:39:41.086Z,28.13
2019-05-23T03:40:41.058Z,28.13
2019-05-23T03:41:41.046Z,28.13
2019-05-23T03:42:41.016Z,33.75
2019-05-23T03:43:40.995Z,33.75
2019-05-23T03:44:40.977Z,33.75
2019-05-23T03:45:40.949Z,39.38
2019-05-23T03:46:40.928Z,39.38
2019-05-23T03:47:40.904Z,45.00
2019-05-23T03:48:40.883Z,45.00
2019-05-23T03:49:40.863Z,45.00
2019-05-23T03:50:40.844Z,50.63
2019-05-23T03:51:40.817Z,50.63
2019-05-23T03:52:40.797Z,56.25
2019-05-23T03:53:40.791Z,56.25
2019-05-23T03:54:40.753Z,61.88
2019-05-23T03:55:40.729Z,61.88
2019-05-23T03:56:40.708Z,61.88
2019-05-23T03:57:40.702Z,61.88
2019-05-23T03:58:40.674Z,73.13
2019-05-23T03:59:40.655Z,67.50
2019-05-23T04:00:40.621Z,73.13
2019-05-23T04:01:47.814Z,73.13
2019-05-23T04:02:40.579Z,78.75
2019-05-23T04:03:40.779Z,78.75
2019-05-23T04:04:40.534Z,84.38
2019-05-23T04:05:40.510Z,84.38
2019-05-23T04:06:40.513Z,84.38
2019-05-23T04:07:40.475Z,90.00
2019-05-23T04:08:40.447Z,90.00
2019-05-23T04:09:40.426Z,90.00
2019-05-23T04:10:40.411Z,95.63
2019-05-23T04:11:40.383Z,95.63
2019-05-23T04:12:40.373Z,95.63
2019-05-23T04:13:40.339Z,101.25
2019-05-23T04:14:40.320Z,101.25
2019-05-23T04:15:40.294Z,101.25
2019-05-23T04:16:40.274Z,106.88
2019-05-23T04:17:40.249Z,106.88
2019-05-23T04:18:40.232Z,112.50
2019-05-23T04:19:40.205Z,112.50
2019-05-23T04:20:40.186Z,112.50
2019-05-23T04:21:40.170Z,112.50
2019-05-23T04:22:40.140Z,112.50
2019-05-23T04:23:40.136Z,112.50
2019-05-23T04:24:40.098Z,112.50
2019-05-23T04:25:40.076Z,112.50
2019-05-23T04:26:40.059Z,112.50
2019-05-23T04:27:40.059Z,118.13
2019-05-23T04:28:40.016Z,123.75
2019-05-23T04:29:39.989Z,123.75
2019-05-23T04:30:39.969Z,118.13
2019-05-23T04:31:39.959Z,118.13
2019-05-23T04:32:39.928Z,118.13
2019-05-23T04:33:39.912Z,118.13
2019-05-23T04:34:39.891Z,112.50
2019-05-23T04:35:39.865Z,112.50
2019-05-23T04:36:39.838Z,112.50
2019-05-23T04:37:39.817Z,112.50
2019-05-23T04:38:39.795Z,112.50
2019-05-23T04:39:39.778Z,118.13
2019-05-23T04:40:39.770Z,118.13
2019-05-23T04:41:39.733Z,118.13
2019-05-23T04:42:39.715Z,118.13
2019-05-23T04:43:39.689Z,118.13
2019-05-23T04:44:43.798Z,123.75
2019-05-23T04:45:39.648Z,123.75
2019-05-23T04:46:39.623Z,123.75
2019-05-23T04:47:39.603Z,129.38
2019-05-23T04:48:39.583Z,129.38
2019-05-23T04:49:39.559Z,135.00
2019-05-23T04:50:39.569Z,135.00
2019-05-23T04:51:39.597Z,135.00
2019-05-23T04:52:39.499Z,135.00
2019-05-23T04:53:39.474Z,140.63
2019-05-23T04:54:39.452Z,140.63
2019-05-23T04:55:39.469Z,140.63
2019-05-23T04:56:39.412Z,146.25
2019-05-23T04:57:39.390Z,146.25
2019-05-23T04:58:39.381Z,151.88
2019-05-23T04:59:39.351Z,151.88
2019-05-23T05:00:39.333Z,157.50
2019-05-23T05:01:39.303Z,163.13
2019-05-23T05:02:39.293Z,163.13
2019-05-23T05:03:39.263Z,168.75
2019-05-23T05:04:39.313Z,168.75
2019-05-23T05:05:39.291Z,174.38
2019-05-23T05:06:39.199Z,180.00
2019-05-23T05:07:39.175Z,180.00
2019-05-23T05:08:39.159Z,185.63
2019-05-23T05:09:39.166Z,185.63
2019-05-23T05:10:39.118Z,191.25
2019-05-23T05:12:22.660Z,196.88
2019-05-23T05:13:22.639Z,202.50
2019-05-23T05:14:22.666Z,202.50
2019-05-23T05:15:22.597Z,213.75
2019-05-23T05:16:22.573Z,213.75
2019-05-23T05:17:22.560Z,219.38
2019-05-23T05:18:22.530Z,225.00
2019-05-23T05:19:22.570Z,230.63
2019-05-23T05:20:22.582Z,230.63
2019-05-23T05:21:22.469Z,230.63
2019-05-23T05:22:22.452Z,236.25
2019-05-23T05:23:22.426Z,241.88
2019-05-23T05:24:22.405Z,247.50
2019-05-23T05:25:22.384Z,247.50
2019-05-23T05:26:22.367Z,253.13
2019-05-23T05:27:22.342Z,258.75
2019-05-23T05:28:22.322Z,258.75
2019-05-23T05:29:22.297Z,275.63
2019-05-23T05:30:22.278Z,309.38
2019-05-23T05:31:22.260Z,489.38
2019-05-23T05:32:22.243Z,720.00
2019-05-23T05:33:22.214Z,793.13
2019-05-23T05:34:22.194Z,815.63
2019-05-23T05:35:22.176Z,832.50
2019-05-23T05:36:22.160Z,866.25
2019-05-23T05:37:22.158Z,956.25
2019-05-23T05:38:22.125Z,1023.75
2019-05-23T05:39:22.100Z,1108.13
2019-05-23T05:40:22.081Z,1158.75
2019-05-23T05:41:22.059Z,1181.25
2019-05-23T05:42:22.051Z,1209.38
2019-05-23T05:43:22.033Z,1265.63
2019-05-23T05:44:22.336Z,1383.75
2019-05-23T05:45:21.987Z,1423.13
2019-05-23T05:46:21.979Z,1485.00
2019-05-23T05:47:21.957Z,1710.00
2019-05-23T05:48:21.951Z,1805.63
2019-05-23T05:49:21.919Z,1456.88
2019-05-23T05:50:21.917Z,1372.50
2019-05-23T05:51:21.891Z,1158.75
2019-05-23T05:53:21.423Z,1080.00
2019-05-23T05:54:21.413Z,1096.88
2019-05-23T05:55:54.605Z,849.38
2019-05-23T05:56:54.595Z,714.38
2019-05-23T05:57:21.373Z,961.88
2019-05-23T05:58:21.365Z,1164.38
2019-05-23T05:59:21.356Z,1181.25
2019-05-23T06:00:21.332Z,1209.38
2019-05-23T06:01:33.452Z,1237.50
2019-05-23T06:02:21.294Z,1333.13
2019-05-23T06:03:21.280Z,1558.13
2019-05-23T06:04:21.266Z,1710.00
2019-05-23T06:05:21.255Z,1710.00
2019-05-23T06:06:21.247Z,1591.88
2019-05-23T06:07:21.235Z,1558.13
2019-05-23T06:08:21.218Z,1535.63
2019-05-23T06:09:21.214Z,1496.25
2019-05-23T06:10:21.284Z,1411.88
2019-05-23T06:11:21.183Z,1350.00
2019-05-23T06:12:21.165Z,1282.50
2019-05-23T06:13:21.165Z,776.25
2019-05-23T06:14:21.139Z,1001.25
2019-05-23T06:15:21.129Z,1440.00
2019-05-23T06:16:21.121Z,1631.25
2019-05-23T06:17:23.950Z,1704.38
2019-05-23T06:18:21.095Z,1749.38
2019-05-23T06:19:21.080Z,1800.00
2019-05-23T06:20:21.074Z,1670.63
2019-05-23T06:21:21.063Z,1473.75
2019-05-23T06:22:21.049Z,1417.50
2019-05-23T06:23:21.036Z,1310.63
2019-05-23T06:24:39.252Z,1271.25
2019-05-23T06:25:21.018Z,1417.50
2019-05-23T06:26:21.011Z,1479.38
2019-05-23T06:27:20.994Z,1456.88
2019-05-23T06:28:20.993Z,1468.13
2019-05-23T06:29:20.993Z,1361.25
2019-05-23T06:30:20.973Z,1260.00
2019-05-23T06:31:20.994Z,1361.25
2019-05-23T06:32:20.949Z,1507.50
2019-05-23T06:33:23.912Z,1378.13
2019-05-23T06:34:20.936Z,1080.00
2019-05-23T06:35:20.919Z,1580.63
2019-05-23T06:36:20.919Z,1614.38
2019-05-23T06:37:20.905Z,1631.25
2019-05-23T06:38:20.895Z,1631.25
2019-05-23T06:39:20.886Z,1665.00
2019-05-23T06:40:20.936Z,1760.63
2019-05-23T06:41:20.881Z,1980.00
2019-05-23T06:42:20.853Z,2030.63
2019-05-23T06:43:20.858Z,1996.88
2019-05-23T06:44:20.853Z,2019.38
2019-05-23T06:45:20.826Z,1935.00
2019-05-23T06:46:20.817Z,1935.00
2019-05-23T06:47:20.808Z,1963.13
2019-05-23T06:48:20.875Z,2036.25
2019-05-23T06:49:20.798Z,1923.75
2019-05-23T06:50:20.787Z,1861.88
2019-05-23T06:51:21.785Z,2008.13
2019-05-23T06:52:20.763Z,1912.50
2019-05-23T06:53:20.768Z,911.25
2019-05-23T06:54:20.750Z,967.50
2019-05-23T06:55:20.747Z,675.00
2019-05-23T06:56:20.745Z,556.88
2019-05-23T06:57:20.732Z,686.25
2019-05-23T06:58:20.974Z,562.50
2019-05-23T06:59:20.740Z,1738.13
2019-05-23T07:00:20.698Z,1985.63
2019-05-23T07:01:20.690Z,1687.50
2019-05-23T07:02:20.684Z,1980.00
2019-05-23T07:03:20.675Z,1805.63
2019-05-23T07:04:20.673Z,1496.25
2019-05-23T07:05:20.654Z,1451.25
2019-05-23T07:06:20.652Z,1344.38
2019-05-23T07:07:20.636Z,1321.88
2019-05-23T07:08:20.631Z,1771.88
2019-05-23T07:09:20.693Z,1456.88
2019-05-23T07:10:20.608Z,2053.13
2019-05-23T07:11:20.597Z,2036.25
2019-05-23T07:12:20.588Z,1839.38
2019-05-23T07:13:20.585Z,1597.50
2019-05-23T07:14:20.578Z,1743.75
2019-05-23T07:15:20.560Z,1456.88
2019-05-23T07:16:20.550Z,1788.75
2019-05-23T07:17:20.561Z,787.50
2019-05-23T07:18:20.530Z,1254.38
2019-05-23T07:19:20.536Z,545.63
2019-05-23T07:20:20.512Z,821.25
2019-05-23T07:21:20.496Z,849.38
2019-05-23T07:22:20.486Z,945.00
2019-05-23T07:23:20.525Z,961.88
2019-05-23T07:24:20.463Z,1518.75
2019-05-23T07:25:20.461Z,945.00
2019-05-23T07:26:20.441Z,871.88
2019-05-23T07:27:20.486Z,573.75
2019-05-23T07:28:20.426Z,511.88
2019-05-23T07:29:20.411Z,618.75
2019-05-23T07:30:21.671Z,511.88
2019-05-23T07:31:20.403Z,506.25
2019-05-23T07:32:20.374Z,534.38
2019-05-23T07:33:20.363Z,540.00
2019-05-23T07:34:20.358Z,551.25
2019-05-23T07:35:20.338Z,511.88
2019-05-23T07:36:20.330Z,523.13
2019-05-23T07:37:20.334Z,534.38
2019-05-23T07:38:20.296Z,523.13
2019-05-23T07:39:20.284Z,551.25
2019-05-23T07:40:20.273Z,562.50
2019-05-23T07:41:20.259Z,1406.25
2019-05-23T07:42:20.263Z,601.88
2019-05-23T07:43:20.233Z,765.00
2019-05-23T07:44:20.222Z,1186.88
2019-05-23T07:45:20.215Z,1496.25
2019-05-23T07:46:20.197Z,2278.13
2019-05-23T07:47:20.181Z,1282.50
2019-05-23T07:48:20.185Z,2632.50
2019-05-23T07:49:20.158Z,1912.50
2019-05-23T07:50:20.150Z,1704.38
2019-05-23T07:51:20.130Z,1586.25
2019-05-23T07:52:20.115Z,652.50
2019-05-23T07:53:20.103Z,646.88
2019-05-23T07:54:20.089Z,579.38
2019-05-23T07:55:20.129Z,545.63
2019-05-23T07:56:20.075Z,551.25
2019-05-23T07:57:20.114Z,630.00
2019-05-23T07:58:20.047Z,888.75
2019-05-23T07:59:20.032Z,540.00
2019-05-23T08:00:20.030Z,1198.13
2019-05-23T08:01:20.066Z,736.88
2019-05-23T08:02:24.880Z,551.25
2019-05-23T08:03:19.981Z,534.38
2019-05-23T08:04:22.341Z,528.75
2019-05-23T08:05:20.015Z,528.75
2019-05-23T08:06:19.946Z,523.13
2019-05-23T08:07:19.947Z,528.75
2019-05-23T08:08:19.937Z,703.13
2019-05-23T08:09:19.910Z,838.13
2019-05-23T08:10:32.957Z,725.63
2019-05-23T08:11:19.883Z,635.63
2019-05-23T08:12:19.870Z,523.13
2019-05-23T08:13:19.862Z,511.88
2019-05-23T08:14:19.842Z,511.88
2019-05-23T08:15:19.890Z,511.88
2019-05-23T08:16:19.822Z,517.50
2019-05-23T08:17:19.817Z,517.50
2019-05-23T08:18:19.802Z,528.75
2019-05-23T08:19:19.941Z,528.75
2019-05-23T08:20:19.770Z,528.75
2019-05-23T08:21:19.760Z,534.38
2019-05-23T08:22:19.744Z,540.00
2019-05-23T08:23:19.724Z,545.63
2019-05-23T08:24:19.711Z,556.88
2019-05-23T08:25:19.701Z,556.88
2019-05-23T08:26:19.711Z,562.50
2019-05-23T08:27:19.679Z,556.88
2019-05-23T08:28:19.660Z,562.50
2019-05-23T08:29:25.991Z,573.75
2019-05-23T08:30:19.630Z,596.25
2019-05-23T08:31:19.623Z,596.25
2019-05-23T08:32:19.603Z,585.00
2019-05-23T08:33:19.595Z,736.88
2019-05-23T08:34:19.580Z,613.13
2019-05-23T08:35:19.567Z,568.13
2019-05-23T08:36:19.544Z,815.63
2019-05-23T08:37:19.532Z,675.00
2019-05-23T08:38:19.523Z,601.88
2019-05-23T08:39:19.561Z,871.88
2019-05-23T08:40:19.502Z,1029.38
2019-05-23T08:41:19.482Z,1153.13
2019-05-23T08:42:19.473Z,613.13
2019-05-23T08:43:19.521Z,624.38
2019-05-23T08:44:19.435Z,568.13
2019-05-23T08:45:19.430Z,568.13
2019-05-23T08:46:19.408Z,641.25
2019-05-23T08:47:19.396Z,585.00
2019-05-23T08:48:19.375Z,573.75
2019-05-23T08:49:19.370Z,568.13
2019-05-23T08:50:19.349Z,573.75
2019-05-23T08:51:19.345Z,551.25
2019-05-23T08:52:19.325Z,540.00
2019-05-23T08:53:19.308Z,528.75
2019-05-23T08:54:19.296Z,545.63
2019-05-23T08:55:19.287Z,556.88
2019-05-23T08:56:19.873Z,573.75
2019-05-23T08:57:19.256Z,607.50
2019-05-23T08:58:19.272Z,635.63
2019-05-23T08:59:19.232Z,635.63
2019-05-23T09:00:19.298Z,618.75
2019-05-23T09:01:19.201Z,596.25
2019-05-23T09:02:19.217Z,568.13
2019-05-23T09:03:19.193Z,568.13
2019-05-23T09:04:19.164Z,551.25
2019-05-23T09:05:19.146Z,551.25
2019-05-23T09:06:19.160Z,556.88
2019-05-23T09:07:19.125Z,579.38
2019-05-23T09:08:19.115Z,573.75
2019-05-23T09:09:29.244Z,562.50
2019-05-23T09:10:19.082Z,579.38
2019-05-23T09:11:19.117Z,573.75
2019-05-23T09:12:19.179Z,742.50
2019-05-23T09:13:19.038Z,1102.50
2019-05-23T09:14:19.023Z,1558.13
2019-05-23T09:15:19.027Z,675.00
2019-05-23T09:16:19.002Z,804.38
2019-05-23T09:17:18.991Z,703.13
2019-05-23T09:18:19.075Z,601.88
2019-05-23T09:19:18.965Z,590.63
2019-05-23T09:20:18.948Z,1164.38
2019-05-23T09:21:18.931Z,680.63
2019-05-23T09:22:18.921Z,680.63
2019-05-23T09:23:18.908Z,1046.25
2019-05-23T09:24:18.892Z,945.00
2019-05-23T09:25:18.894Z,680.63
2019-05-23T09:26:18.908Z,630.00
2019-05-23T09:27:18.857Z,652.50
2019-05-23T09:28:18.853Z,669.38
2019-05-23T09:29:19.464Z,686.25
2019-05-23T09:30:18.822Z,922.50
2019-05-23T09:31:18.814Z,1018.13
2019-05-23T09:32:19.206Z,945.00
2019-05-23T09:33:18.820Z,1147.50
2019-05-23T09:34:18.781Z,1400.63
2019-05-23T09:35:21.290Z,2176.88
2019-05-23T09:36:18.749Z,2790.00
2019-05-23T09:37:22.373Z,2193.75
2019-05-23T09:38:18.732Z,753.75
2019-05-23T09:39:18.780Z,2148.75
2019-05-23T09:40:18.703Z,2182.50
2019-05-23T09:41:18.697Z,1389.38
2019-05-23T09:42:18.687Z,866.25
2019-05-23T09:43:18.682Z,945.00
2019-05-23T09:44:18.661Z,877.50
2019-05-23T09:45:18.652Z,1710.00
2019-05-23T09:46:18.653Z,1923.75
2019-05-23T09:47:18.631Z,3318.75
2019-05-23T09:48:18.623Z,3037.50
2019-05-23T09:49:18.621Z,3459.38
2019-05-23T09:50:18.614Z,3650.63
2019-05-23T09:51:18.593Z,3330.00
2019-05-23T09:52:18.583Z,2250.00
2019-05-23T09:53:18.583Z,3588.75
2019-05-23T09:54:18.569Z,3605.63
2019-05-23T09:55:18.567Z,978.75
2019-05-23T09:56:21.239Z,984.38
2019-05-23T09:57:18.558Z,1012.50
2019-05-23T09:58:18.693Z,1012.50
2019-05-23T09:59:18.938Z,973.13
2019-05-23T10:00:18.520Z,2143.13
2019-05-23T10:01:18.648Z,2711.25
2019-05-23T10:02:18.514Z,3285.00
2019-05-23T10:03:18.710Z,3718.13
2019-05-23T10:04:18.500Z,3819.38
2019-05-23T10:05:18.755Z,3735.00
2019-05-23T10:06:19.089Z,3532.50
2019-05-23T10:07:18.487Z,3481.88
2019-05-23T10:08:18.491Z,4010.63
2019-05-23T10:09:18.461Z,4404.38
2019-05-23T10:10:18.864Z,4443.75
2019-05-23T10:11:18.464Z,4365.00
2019-05-23T10:12:22.166Z,4421.25
2019-05-23T10:13:18.458Z,4449.38
2019-05-23T10:14:18.444Z,4269.38
2019-05-23T10:15:18.443Z,3988.13
2019-05-23T10:16:18.446Z,4196.25
2019-05-23T10:17:18.456Z,4230.00
2019-05-23T10:18:18.435Z,3768.75
2019-05-23T10:19:18.439Z,3796.88
2019-05-23T10:20:18.442Z,4033.13
2019-05-23T10:21:18.434Z,4308.75
2019-05-23T10:22:18.432Z,4151.25
2019-05-23T10:23:18.477Z,4027.50
2019-05-23T10:24:18.430Z,4010.63
2019-05-23T10:25:18.440Z,3971.25
2019-05-23T10:26:18.437Z,3684.38
2019-05-23T10:27:18.469Z,3521.25
2019-05-23T10:28:18.462Z,3611.25
2019-05-23T10:29:18.516Z,3369.38
2019-05-23T10:30:18.433Z,3324.38
2019-05-23T10:31:18.460Z,3363.75
2019-05-23T10:32:18.433Z,3459.38
2019-05-23T10:33:18.440Z,3583.13
2019-05-23T10:34:18.433Z,3808.13
2019-05-23T10:35:18.435Z,905.63
2019-05-23T10:36:18.435Z,770.63
2019-05-23T10:37:18.442Z,641.25
2019-05-23T10:38:18.435Z,635.63
2019-05-23T10:39:18.440Z,635.63
2019-05-23T10:40:18.435Z,720.00
2019-05-23T10:41:18.447Z,2998.13
2019-05-23T10:42:18.441Z,838.13
2019-05-23T10:43:18.431Z,956.25
2019-05-23T10:44:18.438Z,3504.38
2019-05-23T10:45:18.433Z,3121.88
2019-05-23T10:46:18.439Z,2919.38
2019-05-23T10:47:18.434Z,2700.00
2019-05-23T10:48:18.419Z,3256.88
2019-05-23T10:49:18.423Z,3020.63
2019-05-23T10:50:18.428Z,3352.50
2019-05-23T10:51:18.415Z,3054.38
2019-05-23T10:52:18.421Z,3043.13
2019-05-23T10:53:18.442Z,2722.50
2019-05-23T10:54:18.435Z,3105.00
2019-05-23T10:55:18.413Z,3408.75
2019-05-23T10:56:20.636Z,3015.00
2019-05-23T10:57:18.417Z,2542.50
2019-05-23T10:58:18.406Z,2632.50
2019-05-23T10:59:18.411Z,2176.88
2019-05-23T11:00:18.406Z,3611.25
2019-05-23T11:01:18.412Z,3735.00
2019-05-23T11:02:18.401Z,3673.13
2019-05-23T11:03:18.402Z,3279.38
2019-05-23T11:04:18.425Z,3341.25
2019-05-23T11:05:18.407Z,3178.13
2019-05-23T11:06:18.397Z,3082.50
2019-05-23T11:07:18.400Z,3037.50
2019-05-23T11:08:18.419Z,3307.50
2019-05-23T11:09:18.400Z,3296.25
2019-05-23T11:10:18.402Z,3335.63
2019-05-23T11:11:18.409Z,3105.00
2019-05-23T11:12:18.412Z,3408.75
2019-05-23T11:13:18.423Z,3605.63
2019-05-23T11:14:18.438Z,3217.50
2019-05-23T11:15:18.460Z,2756.25
2019-05-23T11:16:18.408Z,2570.63
2019-05-23T11:17:18.400Z,2452.50
2019-05-23T11:18:18.408Z,2621.25
2019-05-23T11:19:18.411Z,2902.50
2019-05-23T11:20:18.400Z,2981.25
2019-05-23T11:21:18.407Z,3240.00
2019-05-23T11:22:18.411Z,3031.88
2019-05-23T11:23:18.405Z,2981.25
2019-05-23T11:24:18.409Z,3155.63
2019-05-23T11:25:18.432Z,2610.00
2019-05-23T11:26:18.420Z,2463.75
2019-05-23T11:27:18.409Z,2435.63
2019-05-23T11:28:18.408Z,2205.00
2019-05-23T11:29:18.445Z,1985.63
2019-05-23T11:30:18.413Z,2053.13
2019-05-23T11:31:18.409Z,2019.38
2019-05-23T11:32:20.160Z,2120.63
2019-05-23T11:33:18.406Z,2154.38
2019-05-23T11:34:18.410Z,2250.00
2019-05-23T11:35:18.409Z,2283.75
2019-05-23T11:36:33.712Z,2480.63
2019-05-23T11:37:18.456Z,2621.25
2019-05-23T11:38:18.414Z,2424.38
2019-05-23T11:39:18.403Z,2418.75
2019-05-23T11:40:18.409Z,2221.88
2019-05-23T11:41:18.427Z,1935.00
2019-05-23T11:42:18.404Z,1743.75
2019-05-23T11:43:18.401Z,1164.38
2019-05-23T11:44:18.403Z,810.00
2019-05-23T11:45:18.408Z,703.13
2019-05-23T11:46:18.405Z,646.88
2019-05-23T11:47:18.397Z,607.50
2019-05-23T11:48:21.017Z,601.88
2019-05-23T11:49:18.402Z,573.75
2019-05-23T11:50:18.387Z,573.75
2019-05-23T11:51:18.386Z,579.38
2019-05-23T11:52:18.396Z,579.38
2019-05-23T11:53:18.400Z,573.75
2019-05-23T11:54:18.376Z,579.38
2019-05-23T11:55:18.380Z,562.50
2019-05-23T11:56:18.364Z,556.88
2019-05-23T11:57:18.418Z,551.25
2019-05-23T11:58:18.356Z,551.25
2019-05-23T11:59:18.350Z,545.63
2019-05-23T12:00:18.757Z,551.25
2019-05-23T12:01:21.280Z,562.50
2019-05-23T12:02:18.330Z,568.13
2019-05-23T12:03:18.347Z,568.13
2019-05-23T12:04:18.320Z,568.13
2019-05-23T12:05:18.314Z,568.13
2019-05-23T12:06:18.304Z,556.88
2019-05-23T12:07:18.295Z,534.38
2019-05-23T12:08:18.292Z,517.50
2019-05-23T12:09:18.282Z,523.13
2019-05-23T12:10:18.348Z,534.38
2019-05-23T12:11:18.263Z,528.75
2019-05-23T12:12:18.257Z,517.50
2019-05-23T12:13:18.246Z,523.13
2019-05-23T12:15:32.521Z,568.13
2019-05-23T12:16:32.558Z,607.50
2019-05-23T12:17:32.512Z,624.38
2019-05-23T12:18:32.601Z,641.25
2019-05-23T12:19:32.604Z,680.63
2019-05-23T12:20:32.489Z,691.88
2019-05-23T12:21:32.468Z,708.75
2019-05-23T12:22:32.481Z,748.13
2019-05-23T12:23:32.451Z,759.38
2019-05-23T12:24:35.351Z,759.38
2019-05-23T12:25:32.439Z,736.88
2019-05-23T12:26:32.435Z,720.00
2019-05-23T12:27:32.417Z,703.13
2019-05-23T12:28:32.404Z,675.00
2019-05-23T12:29:32.404Z,613.13
2019-05-23T12:30:32.383Z,618.75
2019-05-23T12:31:32.371Z,635.63
2019-05-23T12:32:32.363Z,658.13
2019-05-23T12:33:32.352Z,663.75
2019-05-23T12:34:32.341Z,652.50
2019-05-23T12:35:32.340Z,669.38
2019-05-23T12:36:32.333Z,635.63
2019-05-23T12:37:32.319Z,630.00
2019-05-23T12:38:32.302Z,675.00
2019-05-23T12:39:32.294Z,669.38
2019-05-23T12:40:32.285Z,663.75
2019-05-23T12:41:32.289Z,630.00
2019-05-23T12:42:32.263Z,630.00
2019-05-23T12:43:32.256Z,646.88
2019-05-23T12:44:32.244Z,630.00
2019-05-23T12:45:32.238Z,652.50
2019-05-23T12:46:32.223Z,624.38
2019-05-23T12:47:32.221Z,613.13
2019-05-23T12:48:32.203Z,601.88
2019-05-23T12:49:32.192Z,590.63
2019-05-23T12:50:32.185Z,596.25